Skip Navigation Links
NOAA logo - Click to go to the NOAA homepage
NOAA's National Weather Service
Alaska Aviation Weather Unit
  NWS logo - Click to go to the NWS homepage
Left Navbar Graphic     03 AKDT = 11 GMT

   
NOAA is celebrating 200 years of science, service, and stewardship. Visit the NOAA 200th celebration Web site to learn more.
USA.gov is the U.S. Government's official Web portal to all Federal, state and local government Web resources and services.
Facebook
NWS on Facebook

AAWU Home :: Display TAF Add Bookmark
TAF PAIL 290532Z 2906/3006 VRB05KT P6SM SKC=

METAR PAIL 290553Z AUTO 00000KT 10SM CLR M12/M14 A2962 RMK AO2 SLP036 4/016 T11171139 11056 21117 51014 TSNO= METAR PAIL 290653Z AUTO 36003KT 10SM CLR M13/M15 A2963 RMK AO2 SLP040 T11331150 TSNO= METAR PAIL 290753Z AUTO 36003KT 10SM CLR M14/M16 A2964 RMK AO2 SLP043 T11441161 TSNO= METAR PAIL 290853Z AUTO 36004KT 10SM CLR M14/M16 A2965 RMK AO2 SLP048 T11441156 410561161 53012 TSNO= METAR PAIL 290953Z AUTO 00000KT 10SM CLR M16/M18 A2966 RMK AO2 SLP049 I1000 T11561178 TSNO= METAR PAIL 291053Z AUTO 00000KT 10SM CLR M17/M19 A2967 RMK AO2 SLP051 I1000 T11721194 TSNO=
 Alaska TAF Map

NOAA's National Weather Service
Alaska Aviation Weather Unit
6930 Sand Lake Road
Anchorage, AK 99502-1845
Disclaimer
Credits
Glossary
Privacy Policy
About Us
Career Opportunities
Contact AAWU Internet Services Site last modified: April, 17th 2012